Time;durP1;ratioP1;P1;durP2;ratioP2;P2;SDS_P1;SDS_P2;PMS_P1;PMS_P2;Temp;Humidity;BMP_temperature;BMP_pressure;BME280_temperature;BME280_humidity;BME280_pressure;Samples;Min_cycle;Max_cycle;Signal;HPM_P1;HPM_P2
2021/12/12 00:02:31;;;;;;;29.03;14.10;;;;;;;1.54;87.63;101441.25;5075792;28;20213;-84
2021/12/12 00:04:59;;;;;;;30.07;14.97;;;;;;;1.55;87.50;101445.59;5077627;28;20610;-83
2021/12/12 00:07:30;;;;;;;31.27;16.03;;;;;;;1.55;87.47;101442.97;5063696;28;20201;-83
2021/12/12 00:10:04;;;;;;;31.77;15.50;;;;;;;1.57;87.41;101433.31;5076763;28;20207;-84
2021/12/12 00:12:37;;;;;;;29.73;16.67;;;;;;;1.59;87.84;101438.56;5062559;28;20202;-82
2021/12/12 00:15:05;;;;;;;33.30;15.17;;;;;;;1.58;87.33;101432.44;5073553;28;20266;-83
2021/12/12 00:17:32;;;;;;;25.83;12.97;;;;;;;1.58;87.78;101416.69;5073940;28;20201;-87
2021/12/12 00:19:59;;;;;;;26.33;14.20;;;;;;;1.61;88.07;101421.03;5075526;28;20229;-86
2021/12/12 00:22:30;;;;;;;23.67;12.60;;;;;;;1.62;87.91;101418.34;5062326;28;20233;-84
2021/12/12 00:24:59;;;;;;;28.10;15.03;;;;;;;1.61;87.97;101411.38;5067962;28;20197;-85
2021/12/12 00:27:26;;;;;;;24.37;11.70;;;;;;;1.66;88.02;101412.19;5072749;28;20208;-84
2021/12/12 00:29:53;;;;;;;28.03;14.60;;;;;;;1.68;88.10;101422.66;5076290;28;20228;-83
2021/12/12 00:32:23;;;;;;;32.50;15.30;;;;;;;1.69;87.89;101427.91;5075948;28;20201;-84
2021/12/12 00:35:20;;;;;;;25.80;13.03;;;;;;;1.71;88.29;101431.38;5076523;28;20643;-82
2021/12/12 00:37:51;;;;;;;28.73;14.57;;;;;;;1.72;87.99;101435.72;5076118;28;20193;-84
2021/12/12 00:40:25;;;;;;;29.10;13.97;;;;;;;1.72;88.32;101440.13;5075837;28;20203;-83
2021/12/12 00:42:54;;;;;;;34.63;16.17;;;;;;;1.74;88.38;101438.34;5075684;28;20679;-83
2021/12/12 00:45:23;;;;;;;27.40;13.93;;;;;;;1.74;88.27;101431.31;5076016;28;20304;-84
2021/12/12 00:47:50;;;;;;;29.90;14.13;;;;;;;1.73;88.31;101437.47;5075692;28;20323;-82
2021/12/12 00:50:24;;;;;;;28.87;15.67;;;;;;;1.75;88.10;101437.44;5061536;28;20299;-83
2021/12/12 00:52:52;;;;;;;33.33;15.80;;;;;;;1.74;87.99;101439.22;5075239;28;20254;-83
2021/12/12 00:55:20;;;;;;;31.67;14.77;;;;;;;1.76;88.41;101436.56;5075556;28;20307;-82
2021/12/12 00:57:50;;;;;;;33.70;16.80;;;;;;;1.78;88.46;101433.91;5075488;28;20212;-83
2021/12/12 01:00:19;;;;;;;31.70;15.47;;;;;;;1.77;88.12;101433.03;5075878;28;20205;-81
2021/12/12 01:02:46;;;;;;;32.57;15.90;;;;;;;1.76;88.59;101436.56;5076240;28;20750;-83
2021/12/12 01:05:14;;;;;;;33.43;16.13;;;;;;;1.78;87.94;101436.53;5076173;28;20216;-82
2021/12/12 01:07:42;;;;;;;33.77;16.40;;;;;;;1.77;88.13;101433.03;5056642;28;20213;-83
2021/12/12 01:10:15;;;;;;;35.23;16.90;;;;;;;1.75;88.45;101429.56;5068781;28;20292;-82
2021/12/12 01:12:44;;;;;;;34.90;16.87;;;;;;;1.78;88.43;101433.91;5076200;28;20258;-83
2021/12/12 01:15:13;;;;;;;36.67;16.43;;;;;;;1.78;88.74;101432.16;5076438;28;20570;-82
2021/12/12 01:17:43;;;;;;;29.87;15.90;;;;;;;1.79;88.20;101435.66;5072652;28;20201;-82
2021/12/12 01:20:15;;;;;;;36.93;16.50;;;;;;;1.80;88.57;101432.09;5066262;28;20238;-82
2021/12/12 01:22:43;;;;;;;38.50;17.43;;;;;;;1.78;88.44;101429.53;5074361;28;20212;-83
2021/12/12 01:25:14;;;;;;;35.17;17.03;;;;;;;1.80;88.58;101427.72;5066331;28;20265;-84
2021/12/12 01:27:41;;;;;;;40.23;17.50;;;;;;;1.83;88.59;101432.06;5070453;28;20208;-83
2021/12/12 01:30:12;;;;;;;36.63;16.60;;;;;;;1.84;88.48;101439.94;5074833;28;20289;-81
2021/12/12 01:32:38;;;;;;;38.10;17.07;;;;;;;1.87;88.88;101429.38;5076738;28;20237;-83
2021/12/12 01:35:14;;;;;;;38.63;17.13;;;;;;;1.88;89.04;101425.88;5075952;28;20209;-83
2021/12/12 01:37:50;;;;;;;37.53;16.70;;;;;;;1.92;88.92;101422.31;5076186;28;20616;-84
2021/12/12 01:40:20;;;;;;;36.23;17.13;;;;;;;1.95;88.87;101421.41;5076943;28;20195;-84
2021/12/12 01:42:54;;;;;;;36.40;15.70;;;;;;;1.97;89.00;101430.97;5075054;28;20228;-82
2021/12/12 01:45:25;;;;;;;36.03;16.37;;;;;;;1.98;89.01;101435.31;5075279;28;20215;-82
2021/12/12 01:47:54;;;;;;;37.20;17.43;;;;;;;2.00;89.41;101430.91;5076817;28;20221;-83
2021/12/12 01:50:27;;;;;;;39.20;18.90;;;;;;;2.02;89.57;101433.53;5076048;28;20239;-83
2021/12/12 01:52:55;;;;;;;34.83;17.20;;;;;;;2.05;89.21;101425.59;5076407;28;20189;-84
2021/12/12 01:55:26;;;;;;;33.70;16.03;;;;;;;2.07;89.18;101423.81;5076177;28;20209;-84
2021/12/12 01:57:56;;;;;;;33.63;15.27;;;;;;;2.11;89.80;101429.91;5076773;28;20336;-84
2021/12/12 02:00:31;;;;;;;32.77;16.23;;;;;;;2.12;89.48;101408.84;5077002;28;20285;-83
2021/12/12 02:02:59;;;;;;;36.90;15.40;;;;;;;2.20;89.53;101416.59;5076140;28;20208;-83
2021/12/12 02:05:28;;;;;;;33.73;14.83;;;;;;;2.24;89.67;101408.63;5076104;28;20216;-82
2021/12/12 02:07:57;;;;;;;35.70;16.57;;;;;;;2.26;89.02;101409.47;5075049;28;20315;-84
2021/12/12 02:10:28;;;;;;;33.17;15.10;;;;;;;2.29;89.83;101408.56;5074895;28;20205;-84
2021/12/12 02:12:56;;;;;;;27.30;14.43;;;;;;;2.34;89.31;101409.31;5075539;28;20195;-84
2021/12/12 02:15:25;;;;;;;30.20;14.10;;;;;;;2.37;89.22;101410.16;5074935;28;20302;-84
2021/12/12 02:17:54;;;;;;;30.80;14.10;;;;;;;2.39;89.44;101407.50;5065874;28;20238;-84
2021/12/12 02:20:32;;;;;;;26.87;13.57;;;;;;;2.40;88.97;101414.50;5083011;28;20296;-83
2021/12/12 02:23:07;;;;;;;28.37;14.07;;;;;;;2.40;89.12;101410.09;5060396;28;20228;-83
2021/12/12 02:36:42;;;;;;;29.33;13.57;;;;;;;2.41;88.85;101416.22;5075136;28;20565;-83
2021/12/12 02:39:15;;;;;;;32.20;14.10;;;;;;;2.40;88.67;101418.00;5074918;28;20240;-84
2021/12/12 02:41:43;;;;;;;23.90;13.37;;;;;;;2.38;88.23;101422.41;5071212;28;20274;-83
2021/12/12 02:44:11;;;;;;;26.00;13.07;;;;;;;2.38;88.31;101413.66;5070955;28;20224;-84
2021/12/12 02:46:40;;;;;;;27.80;13.10;;;;;;;2.39;88.57;101415.38;5078286;28;20634;-83
2021/12/12 02:49:23;;;;;;;25.77;12.20;;;;;;;2.39;88.38;101423.28;5078732;28;20307;-83
2021/12/12 02:51:50;;;;;;;21.17;11.73;;;;;;;2.41;87.80;101426.75;5078637;28;20205;-82
2021/12/12 02:54:19;;;;;;;20.67;11.20;;;;;;;2.41;88.29;101426.75;5076856;28;20581;-83
2021/12/12 02:56:48;;;;;;;20.93;11.43;;;;;;;2.42;87.71;101433.75;5067765;28;20204;-84
2021/12/12 02:59:18;;;;;;;24.23;12.40;;;;;;;2.41;88.40;101432.00;5079194;28;20685;-82
2021/12/12 03:01:50;;;;;;;23.30;12.00;;;;;;;2.43;87.78;101448.63;5079743;28;20193;-82
2021/12/12 03:04:17;;;;;;;27.67;12.40;;;;;;;2.43;88.32;101449.50;5078749;28;20213;-83
2021/12/12 03:06:46;;;;;;;22.73;12.30;;;;;;;2.43;87.61;101443.34;5063164;28;20643;-82
2021/12/12 03:09:15;;;;;;;21.30;11.33;;;;;;;2.46;87.60;101435.44;5059534;28;20243;-83
2021/12/12 03:11:43;;;;;;;22.27;11.60;;;;;;;2.50;87.16;101439.75;5071513;28;20213;-82
2021/12/12 03:14:12;;;;;;;21.43;11.27;;;;;;;2.53;87.14;101436.16;5070840;28;20205;-82
2021/12/12 03:16:39;;;;;;;19.90;12.07;;;;;;;2.51;87.61;101444.06;5077619;28;20287;-83
2021/12/12 03:19:07;;;;;;;24.53;11.60;;;;;;;2.52;87.00;101437.94;5089614;28;20232;-84
2021/12/12 03:21:42;;;;;;;21.73;10.87;;;;;;;2.52;86.71;101444.94;5068522;28;20209;-83
2021/12/12 03:24:12;;;;;;;25.03;11.13;;;;;;;2.52;87.22;101444.94;5080334;28;20653;-84
2021/12/12 03:26:43;;;;;;;19.27;11.80;;;;;;;2.54;87.00;101445.78;5080638;28;20203;-83
2021/12/12 03:29:11;;;;;;;19.43;10.20;;;;;;;2.54;86.34;101454.53;5079196;28;20773;-83
2021/12/12 03:31:43;;;;;;;18.07;10.87;;;;;;;2.55;86.56;101442.25;5080411;28;20209;-86
2021/12/12 03:34:15;;;;;;;20.57;11.47;;;;;;;2.57;86.30;101443.09;5080631;28;20189;-85
2021/12/12 03:36:44;;;;;;;18.50;10.27;;;;;;;2.57;86.30;101435.22;5080815;28;20268;-86
2021/12/12 03:39:15;;;;;;;17.90;10.00;;;;;;;2.59;86.39;101429.03;5080784;28;20785;-84
2021/12/12 03:41:42;;;;;;;16.47;9.53;;;;;;;2.58;85.82;101429.94;5080293;28;20190;-84
2021/12/12 03:44:18;;;;;;;18.70;10.07;;;;;;;2.60;85.86;101430.78;5079897;28;20233;-86
2021/12/12 03:46:49;;;;;;;16.57;9.23;;;;;;;2.60;85.19;101422.03;5080552;28;20244;-86
2021/12/12 03:49:17;;;;;;;17.23;9.53;;;;;;;2.61;85.41;101421.13;5080092;28;20231;-84
2021/12/12 03:51:47;;;;;;;13.03;8.63;;;;;;;2.60;85.25;101422.03;5080040;28;20222;-84
2021/12/12 03:54:15;;;;;;;14.93;9.10;;;;;;;2.63;84.21;101414.94;5079651;28;20209;-82
2021/12/12 03:56:43;;;;;;;17.03;8.30;;;;;;;2.68;84.56;101421.00;5078910;28;20296;-83
2021/12/12 03:59:11;;;;;;;16.53;9.10;;;;;;;2.69;83.92;101417.44;5078540;28;20235;-82
2021/12/12 04:01:43;;;;;;;11.57;7.13;;;;;;;2.72;84.33;101413.91;5078718;28;20215;-83
2021/12/12 04:04:11;;;;;;;13.87;8.40;;;;;;;2.74;83.78;101430.53;5079030;28;20661;-83
2021/12/12 04:06:38;;;;;;;14.37;8.27;;;;;;;2.76;83.60;101416.44;5079554;28;20218;-83
2021/12/12 04:09:07;;;;;;;15.67;7.77;;;;;;;2.79;83.86;101408.50;5079188;28;20596;-83
2021/12/12 04:11:37;;;;;;;12.87;7.40;;;;;;;2.81;83.33;101411.09;5079503;28;20215;-82
2021/12/12 04:14:06;;;;;;;14.37;7.87;;;;;;;2.83;83.29;101397.94;5079245;28;20201;-84
2021/12/12 04:16:36;;;;;;;16.67;9.00;;;;;;;2.85;83.51;101396.13;5080097;28;20308;-82
2021/12/12 04:19:05;;;;;;;14.20;7.97;;;;;;;2.85;83.24;101394.38;5079263;28;20220;-84
2021/12/12 04:21:32;;;;;;;14.97;7.57;;;;;;;2.88;82.82;101394.28;5078897;28;20205;-83
2021/12/12 04:23:59;;;;;;;16.43;7.53;;;;;;;2.88;82.77;101398.69;5078600;28;20224;-84
2021/12/12 04:26:28;;;;;;;11.77;6.97;;;;;;;2.88;82.66;101394.28;5078835;28;20204;-83
2021/12/12 04:28:58;;;;;;;14.30;7.57;;;;;;;2.91;82.01;101393.34;5078668;28;20232;-83
2021/12/12 04:31:24;;;;;;;16.37;8.23;;;;;;;2.92;82.08;101393.34;5062331;28;20217;-83
2021/12/12 04:33:52;;;;;;;12.10;7.37;;;;;;;2.92;81.42;101401.22;5058071;28;20197;-82
2021/12/12 04:36:25;;;;;;;11.27;7.80;;;;;;;2.91;81.59;101394.22;5058570;28;20272;-82
2021/12/12 04:38:52;;;;;;;16.27;8.73;;;;;;;2.91;81.65;101396.84;5058194;28;20223;-83
2021/12/12 04:41:22;;;;;;;18.70;8.33;;;;;;;2.93;81.07;101399.47;5067180;28;20683;-83
2021/12/12 04:43:49;;;;;;;12.93;7.67;;;;;;;2.93;80.88;101408.22;5075460;28;20247;-82
2021/12/12 04:46:24;;;;;;;12.20;7.17;;;;;;;2.94;81.46;101407.34;5058539;28;20217;-84
2021/12/12 04:51:43;;;;;;;14.67;7.93;;;;;;;2.94;81.08;101399.44;5078749;28;20191;-83
2021/12/12 04:54:25;;;;;;;13.77;7.83;;;;;;;2.95;81.31;101401.16;5078370;28;20205;-82
2021/12/12 04:56:57;;;;;;;16.53;9.23;;;;;;;2.95;81.42;101395.91;5078089;28;20566;-83
2021/12/12 04:59:28;;;;;;;14.73;8.03;;;;;;;2.95;81.30;101402.94;5078408;28;20227;-82
2021/12/12 05:02:02;;;;;;;13.80;8.50;;;;;;;2.93;80.70;101402.97;5078149;28;20195;-82
2021/12/12 05:04:33;;;;;;;13.23;7.53;;;;;;;2.94;81.19;101403.84;5076417;28;20299;-82
2021/12/12 05:07:10;;;;;;;12.77;7.50;;;;;;;2.93;80.60;101402.97;5076963;28;20216;-83
2021/12/12 05:09:43;;;;;;;14.63;7.50;;;;;;;2.94;80.83;101404.69;5077705;28;20221;-82
2021/12/12 05:12:17;;;;;;;17.20;7.23;;;;;;;2.96;80.91;101399.41;5076844;28;20197;-83
2021/12/12 05:14:49;;;;;;;12.93;7.57;;;;;;;2.95;81.34;101393.28;5077399;28;20260;-83
2021/12/12 05:17:21;;;;;;;11.10;6.97;;;;;;;2.99;80.57;101391.47;5076427;28;20193;-83
2021/12/12 05:19:53;;;;;;;9.87;6.67;;;;;;;3.00;81.03;101394.06;5076889;28;20225;-84
2021/12/12 05:22:26;;;;;;;14.73;6.80;;;;;;;3.02;81.15;101394.91;5076936;28;20215;-83
2021/12/12 05:24:54;;;;;;;11.70;7.20;;;;;;;3.04;81.14;101397.50;5076898;28;20217;-84
2021/12/12 05:27:25;;;;;;;10.80;6.40;;;;;;;3.06;81.01;101395.69;5076666;28;20205;-84
2021/12/12 05:30:01;;;;;;;13.03;6.07;;;;;;;3.08;80.60;101394.75;5076728;28;20233;-83
2021/12/12 05:32:29;;;;;;;10.47;5.93;;;;;;;3.09;80.20;101391.22;5077782;28;20276;-84
2021/12/12 05:34:57;;;;;;;13.50;6.50;;;;;;;3.09;80.86;101396.47;5076840;28;20304;-83
2021/12/12 05:37:25;;;;;;;9.87;6.43;;;;;;;3.09;79.94;101400.88;5077789;28;20558;-84
2021/12/12 05:39:53;;;;;;;11.43;6.73;;;;;;;3.10;80.24;101392.09;5077383;28;20232;-83
2021/12/12 05:42:21;;;;;;;10.27;6.77;;;;;;;3.11;80.68;101385.94;5077273;28;20209;-84
2021/12/12 05:44:49;;;;;;;11.30;6.80;;;;;;;3.11;80.48;101386.78;5077892;28;20229;-83
2021/12/12 05:47:16;;;;;;;10.77;6.53;;;;;;;3.12;80.36;101387.66;5076597;28;20246;-84
2021/12/12 05:49:43;;;;;;;10.80;7.13;;;;;;;3.11;80.09;101384.16;5077612;28;20228;-83
2021/12/12 05:52:13;;;;;;;10.87;7.50;;;;;;;3.12;79.63;101391.16;5077558;28;20219;-83
2021/12/12 05:54:41;;;;;;;14.10;7.93;;;;;;;3.13;79.90;101390.28;5076889;28;20623;-83
2021/12/12 05:57:10;;;;;;;11.00;7.03;;;;;;;3.13;79.46;101392.03;5076803;28;20200;-82
2021/12/12 05:59:39;;;;;;;14.13;7.20;;;;;;;3.14;79.81;101384.09;5077737;28;20319;-83
2021/12/12 06:02:06;;;;;;;12.50;6.70;;;;;;;3.15;79.53;101390.25;5077021;28;20544;-83
2021/12/12 06:04:34;;;;;;;12.30;7.73;;;;;;;3.14;79.23;101384.09;5076844;28;20231;-83
2021/12/12 06:07:03;;;;;;;13.30;7.73;;;;;;;3.14;79.70;101384.09;5076855;28;20208;-82
2021/12/12 06:09:32;;;;;;;18.07;8.60;;;;;;;3.13;78.97;101392.91;5077407;28;20225;-82
2021/12/12 06:12:03;;;;;;;12.90;7.23;;;;;;;3.12;79.56;101392.94;5077668;28;20281;-82
2021/12/12 06:14:31;;;;;;;11.73;6.80;;;;;;;3.11;79.25;101399.97;5077576;28;20207;-83
2021/12/12 06:17:01;;;;;;;11.73;6.80;;;;;;;3.12;79.73;101392.94;5079936;28;20215;-82
2021/12/12 06:19:32;;;;;;;12.07;6.97;;;;;;;3.13;78.75;101389.41;5081223;28;20710;-82
2021/12/12 06:22:01;;;;;;;11.63;7.37;;;;;;;3.14;78.78;101385.88;5080533;28;20201;-82
2021/12/12 06:24:29;;;;;;;13.20;8.27;;;;;;;3.14;79.19;101391.13;5080600;28;20221;-83
2021/12/12 06:27:02;;;;;;;14.97;7.67;;;;;;;3.14;79.21;101391.13;5080407;28;20212;-83
2021/12/12 06:29:30;;;;;;;12.33;8.07;;;;;;;3.14;78.82;101401.66;5080082;28;20323;-85
2021/12/12 06:31:57;;;;;;;15.67;8.50;;;;;;;3.15;79.15;101392.88;5080411;28;20219;-84
2021/12/12 06:34:23;;;;;;;16.80;9.53;;;;;;;3.12;79.05;101399.06;5081536;28;20295;-85
2021/12/12 06:36:51;;;;;;;15.50;8.97;;;;;;;3.11;79.25;101413.13;5081652;28;20201;-83
2021/12/12 06:39:19;;;;;;;16.27;9.50;;;;;;;3.10;78.82;101410.50;5080534;28;20217;-83
2021/12/12 06:41:47;;;;;;;17.57;9.67;;;;;;;3.11;79.25;101418.38;5080789;28;20216;-84
2021/12/12 06:44:16;;;;;;;15.97;8.77;;;;;;;3.12;79.06;101416.63;5081027;28;20741;-84
2021/12/12 06:46:44;;;;;;;15.87;9.50;;;;;;;3.10;79.16;101424.53;5080075;28;20240;-83
2021/12/12 06:49:15;;;;;;;17.60;8.83;;;;;;;3.12;79.81;101421.88;5066749;28;20251;-82
2021/12/12 06:51:43;;;;;;;14.93;8.67;;;;;;;3.15;78.95;101421.81;5086675;28;20203;-82
2021/12/12 06:54:11;;;;;;;16.17;8.67;;;;;;;3.17;79.90;101424.44;5077727;28;20578;-82
2021/12/12 06:56:37;;;;;;;18.07;8.70;;;;;;;3.15;79.29;101416.56;5079079;28;20205;-81
2021/12/12 06:59:05;;;;;;;19.23;8.47;;;;;;;3.18;79.17;101428.78;5079395;28;20239;-83
2021/12/12 07:01:34;;;;;;;15.53;8.60;;;;;;;3.16;80.07;101415.66;5080791;28;20209;-83
2021/12/12 07:04:07;;;;;;;17.33;8.00;;;;;;;3.18;80.09;101415.63;5081161;28;20213;-83
2021/12/12 07:06:50;;;;;;;;;;;;;;;;;;;;;
2021/12/12 07:09:17;;;;;;;13.80;8.23;;;;;;;3.16;80.13;101415.66;5056072;28;20316;-83
2021/12/12 07:12:01;;;;;;;15.47;9.43;;;;;;;3.17;80.28;101420.03;5081826;28;20235;-83
2021/12/12 07:14:38;;;;;;;21.67;10.33;;;;;;;3.14;80.88;101420.97;5081650;28;20193;-84
2021/12/12 07:17:08;;;;;;;20.53;10.17;;;;;;;3.13;80.80;101421.84;5081132;28;20208;-82
2021/12/12 07:19:40;;;;;;;16.90;10.47;;;;;;;3.10;81.20;101413.16;5081234;28;20297;-83
2021/12/12 07:22:07;;;;;;;17.23;9.83;;;;;;;3.11;81.46;101412.25;5081158;28;20631;-83
2021/12/12 07:24:37;;;;;;;19.90;11.40;;;;;;;3.06;81.17;101408.84;5080118;28;20227;-83
2021/12/12 07:27:20;;;;;;;22.60;11.43;;;;;;;3.04;81.90;101402.75;5080112;28;20289;-83
2021/12/12 07:30:06;;;;;;;20.63;11.03;;;;;;;3.01;81.81;101402.81;5080210;28;20320;-85
2021/12/12 07:32:46;;;;;;;20.43;12.00;;;;;;;2.96;81.79;101402.03;5080057;28;20201;-84
2021/12/12 07:35:19;;;;;;;21.20;12.33;;;;;;;2.94;82.19;101402.06;5080676;28;20619;-83
2021/12/12 07:37:57;;;;;;;19.60;11.37;;;;;;;2.92;82.46;101403.00;5079782;28;20200;-85
2021/12/12 07:40:29;;;;;;;17.27;10.80;;;;;;;2.89;82.35;101395.16;5080500;28;20183;-84
2021/12/12 07:42:58;;;;;;;16.73;10.53;;;;;;;2.91;82.29;101390.72;5079221;28;20185;-82
2021/12/12 07:45:36;;;;;;;18.83;10.97;;;;;;;2.88;82.82;101385.53;5079252;28;20660;-81
2021/12/12 07:48:17;;;;;;;16.33;10.53;;;;;;;2.88;83.08;101385.53;5079280;28;20567;-82
2021/12/12 07:50:50;;;;;;;20.67;11.87;;;;;;;2.89;83.56;101389.88;5079037;28;20193;-84
2021/12/12 07:53:18;;;;;;;20.30;11.13;;;;;;;2.87;83.68;101383.78;5080172;28;20224;-83
2021/12/12 07:55:46;;;;;;;16.70;11.93;;;;;;;2.88;83.64;101380.25;5079564;28;20280;-84
2021/12/12 07:58:19;;;;;;;18.73;11.20;;;;;;;2.90;84.28;101381.97;5079587;28;20220;-83
2021/12/12 08:00:57;;;;;;;15.17;9.60;;;;;;;2.90;83.87;101383.72;5079074;28;20189;-83
2021/12/12 08:03:36;;;;;;;19.10;11.00;;;;;;;2.88;84.08;101394.28;5079982;28;20192;-83
2021/12/12 08:06:16;;;;;;;13.03;8.77;;;;;;;2.88;84.75;101389.03;5079887;28;20212;-85
2021/12/12 08:09:01;;;;;;;;;;;;;;;;;;;;;
2021/12/12 08:11:39;;;;;;;17.37;9.67;;;;;;;2.86;84.97;101395.25;5073345;28;20283;-84
2021/12/12 08:14:16;;;;;;;18.80;9.77;;;;;;;2.88;85.04;101398.69;5078292;28;20244;-82
2021/12/12 08:16:58;;;;;;;18.47;10.17;;;;;;;2.87;84.55;101391.69;5076776;28;20276;-83
2021/12/12 08:19:33;;;;;;;13.73;8.50;;;;;;;2.86;84.49;101392.59;5077269;28;20716;-83
2021/12/12 08:22:04;;;;;;;14.00;8.97;;;;;;;2.87;84.75;101391.69;5077028;28;20211;-84
2021/12/12 08:24:32;;;;;;;13.77;8.77;;;;;;;2.90;84.70;101389.00;5077080;28;20284;-84
2021/12/12 08:26:59;;;;;;;14.50;8.50;;;;;;;2.88;85.04;101382.91;5078331;28;20691;-83
2021/12/12 08:29:27;;;;;;;10.07;7.40;;;;;;;2.90;84.87;101379.34;5078653;28;20257;-83
2021/12/12 08:31:55;;;;;;;12.00;7.23;;;;;;;2.91;85.35;101383.72;5079104;28;20296;-83
2021/12/12 08:34:22;;;;;;;13.83;7.57;;;;;;;2.92;85.19;101382.81;5079376;28;20289;-83
2021/12/12 08:36:58;;;;;;;13.00;7.50;;;;;;;2.93;85.19;101384.53;5079422;28;20265;-83
2021/12/12 08:39:28;;;;;;;10.80;6.70;;;;;;;2.95;86.03;101392.41;5077901;28;20308;-84
2021/12/12 08:41:59;;;;;;;11.80;7.07;;;;;;;2.96;85.51;101400.28;5078102;28;20212;-83
2021/12/12 08:44:29;;;;;;;13.13;6.47;;;;;;;2.99;85.74;101404.63;5078623;28;20244;-83
2021/12/12 08:47:01;;;;;;;11.40;6.17;;;;;;;3.00;85.30;101398.47;5077727;28;20266;-83
2021/12/12 08:49:31;;;;;;;8.80;6.10;;;;;;;3.07;85.42;101384.25;5077232;28;20224;-84
2021/12/12 08:52:01;;;;;;;9.33;6.37;;;;;;;3.06;86.09;101378.13;5077203;28;20244;-82
2021/12/12 08:54:31;;;;;;;9.47;5.30;;;;;;;3.07;85.75;101379.84;5075155;28;20254;-84
2021/12/12 08:57:04;;;;;;;10.87;5.93;;;;;;;3.10;85.52;101384.19;5075236;28;20212;-83
2021/12/12 08:59:33;;;;;;;8.33;4.80;;;;;;;3.11;85.35;101375.41;5074885;28;20587;-83
2021/12/12 09:02:03;;;;;;;8.80;5.30;;;;;;;3.14;86.05;101380.59;5075205;28;20621;-82
2021/12/12 09:04:31;;;;;;;11.70;5.50;;;;;;;3.17;86.09;101379.69;5075151;28;20201;-82
2021/12/12 09:07:04;;;;;;;7.20;4.80;;;;;;;3.21;85.45;101369.06;5074838;28;20320;-82
2021/12/12 09:09:48;;;;;;;9.03;4.57;;;;;;;3.23;85.23;101367.22;5076455;28;20292;-83
2021/12/12 09:12:21;;;;;;;12.13;5.43;;;;;;;3.26;85.46;101359.28;5073843;28;20278;-83
2021/12/12 09:14:58;;;;;;;8.87;5.17;;;;;;;3.28;85.49;101370.66;5074460;28;20185;-82
2021/12/12 09:17:33;;;;;;;8.10;4.93;;;;;;;3.29;85.89;101351.31;5076800;28;20232;-81
2021/12/12 09:20:05;;;;;;;8.27;5.60;;;;;;;3.32;86.21;101361.78;5042025;22;20740;-74
2021/12/12 09:22:35;;;;;;;10.67;5.70;;;;;;;3.33;85.85;101363.53;5032402;28;20209;-74
2021/12/12 09:25:11;;;;;;;7.87;4.47;;;;;;;3.34;86.15;101349.47;5028378;28;20233;-74
2021/12/12 09:27:44;;;;;;;9.13;4.40;;;;;;;3.38;86.62;101347.63;5033574;28;20775;-74
2021/12/12 09:30:14;;;;;;;8.27;4.87;;;;;;;3.37;86.24;101359.91;5030424;28;20226;-74
2021/12/12 09:32:48;;;;;;;9.53;4.83;;;;;;;3.39;86.82;101358.13;5029999;28;20206;-74
2021/12/12 09:35:21;;;;;;;7.63;4.40;;;;;;;3.39;86.79;101373.06;5028813;28;20201;-74
2021/12/12 09:37:53;;;;;;;6.43;4.07;;;;;;;3.43;86.77;101362.41;5035038;28;20205;-73
2021/12/12 09:40:38;;;;;;;10.33;4.27;;;;;;;3.46;86.89;101370.22;5032619;28;20207;-73
2021/12/12 09:43:23;;;;;;;7.00;3.23;;;;;;;3.46;87.28;101358.84;5034045;28;20222;-73
2021/12/12 09:46:01;;;;;;;9.23;3.87;;;;;;;3.48;87.24;101363.16;5027480;28;20228;-72
2021/12/12 09:52:19;;;;;;;8.60;4.20;;;;;;;3.56;87.83;101344.56;4964617;28;20211;-74
2021/12/12 09:54:52;;;;;;;6.50;3.00;;;;;;;3.59;88.25;101339.19;4964196;28;20275;-74
2021/12/12 09:57:25;;;;;;;7.47;3.60;;;;;;;3.62;87.41;101335.63;5028744;28;20202;-74
2021/12/12 10:00:20;;;;;;;7.87;4.10;;;;;;;3.61;88.10;101332.13;5037624;28;20208;-72
2021/12/12 10:03:23;;;;;;;5.23;3.37;;;;;;;3.66;88.02;101340.81;5010426;28;20210;-74
2021/12/12 10:05:55;;;;;;;9.77;4.73;;;;;;;3.69;87.80;101331.97;5038624;28;20232;-74
2021/12/12 10:08:33;;;;;;;10.63;6.30;;;;;;;3.72;87.87;101331.91;5034290;28;20206;-74
2021/12/12 10:11:03;;;;;;;9.33;4.57;;;;;;;3.75;87.69;101327.44;5042942;28;20249;-74
2021/12/12 10:13:39;;;;;;;14.90;7.67;;;;;;;3.80;87.69;101332.56;5037903;28;20236;-74
2021/12/12 10:16:14;;;;;;;5.93;3.43;;;;;;;3.81;87.52;101336.94;5032884;28;20228;-74
2021/12/12 10:18:49;;;;;;;10.00;3.60;;;;;;;3.87;87.80;101328.00;5038436;28;20205;-74
2021/12/12 10:21:22;;;;;;;11.17;5.57;;;;;;;3.94;87.64;101327.81;5036442;28;20202;-74
2021/12/12 10:24:02;;;;;;;6.23;3.20;;;;;;;4.00;87.60;101325.03;5029769;28;20240;-74
2021/12/12 10:26:34;;;;;;;5.37;2.87;;;;;;;4.01;87.81;101304.81;5036375;28;20242;-74
2021/12/12 10:29:07;;;;;;;5.23;3.73;;;;;;;4.06;87.58;101300.28;5037091;28;20696;-74
2021/12/12 10:31:39;;;;;;;5.90;3.40;;;;;;;4.10;87.48;101299.31;5037369;28;20690;-74
2021/12/12 10:34:11;;;;;;;7.17;3.73;;;;;;;4.16;87.62;101291.22;5034154;28;20657;-73
2021/12/12 10:36:43;;;;;;;6.23;3.10;;;;;;;4.19;87.84;101286.72;5031809;28;20206;-72
2021/12/12 10:39:12;;;;;;;6.93;3.40;;;;;;;4.25;87.06;101292.75;5039848;28;20213;-74
2021/12/12 10:41:45;;;;;;;5.87;3.13;;;;;;;4.25;87.51;101303.31;5034873;28;20225;-72
2021/12/12 10:44:17;;;;;;;5.13;2.80;;;;;;;4.29;87.37;101303.19;5022577;28;20241;-71
2021/12/12 10:46:55;;;;;;;7.47;3.80;;;;;;;4.30;87.01;101291.69;5030153;28;20240;-74
2021/12/12 10:49:27;;;;;;;4.13;3.30;;;;;;;4.33;87.24;101296.03;5013890;28;20214;-73
2021/12/12 10:52:02;;;;;;;6.80;3.60;;;;;;;4.33;86.90;101301.31;5025086;28;20620;-73
2021/12/12 10:54:33;;;;;;;5.47;3.10;;;;;;;4.33;86.74;101285.47;5020941;28;20234;-72
2021/12/12 10:57:04;;;;;;;5.13;2.50;;;;;;;4.37;86.96;101302.97;5014816;28;20211;-72
2021/12/12 10:59:37;;;;;;;6.07;2.83;;;;;;;4.37;87.29;101300.31;5024735;28;20672;-73
2021/12/12 11:02:07;;;;;;;4.33;2.30;;;;;;;4.43;86.55;101311.56;5024584;28;20656;-74
2021/12/12 11:04:40;;;;;;;4.13;2.37;;;;;;;4.50;86.82;101296.44;5016611;28;20226;-74
2021/12/12 11:07:12;;;;;;;7.27;2.43;;;;;;;4.49;86.32;101292.06;5028384;28;20218;-73
2021/12/12 11:09:43;;;;;;;3.97;2.17;;;;;;;4.55;86.40;101291.91;5026858;28;20710;-73
2021/12/12 11:12:17;;;;;;;2.33;1.33;;;;;;;4.58;86.48;101301.50;5028417;28;20206;-73
2021/12/12 11:14:53;;;;;;;2.90;2.27;;;;;;;4.64;87.02;101294.28;5027917;28;20233;-73
2021/12/12 11:17:28;;;;;;;4.43;2.70;;;;;;;4.66;86.47;101295.09;5028761;28;20216;-73
2021/12/12 11:19:59;;;;;;;3.67;2.30;;;;;;;4.67;86.69;101293.31;5030503;28;20217;-73
2021/12/12 11:22:31;;;;;;;3.13;2.37;;;;;;;4.68;87.15;101292.41;5032330;28;20658;-73
2021/12/12 11:25:04;;;;;;;4.57;2.50;;;;;;;4.69;87.05;101292.34;5030528;28;20229;-73
2021/12/12 11:27:34;;;;;;;3.37;2.73;;;;;;;4.72;87.16;101291.41;5034244;28;20229;-74
2021/12/12 11:30:09;;;;;;;3.30;2.23;;;;;;;4.75;86.62;101289.56;5029935;28;20630;-74
2021/12/12 11:32:37;;;;;;;3.77;2.23;;;;;;;4.74;86.52;101286.97;5032616;28;20200;-74
2021/12/12 11:35:07;;;;;;;3.70;2.20;;;;;;;4.79;86.74;101283.28;5033938;28;20237;-73
2021/12/12 11:37:41;;;;;;;6.07;2.57;;;;;;;4.79;86.49;101285.06;5032911;28;20285;-74
2021/12/12 11:40:17;;;;;;;2.73;1.93;;;;;;;4.81;86.71;101276.19;5028510;28;20210;-73
2021/12/12 11:42:48;;;;;;;4.40;2.53;;;;;;;4.84;86.60;101286.63;5028626;28;20216;-73
2021/12/12 11:45:24;;;;;;;5.13;2.77;;;;;;;4.86;86.17;101276.91;5029198;28;20210;-73
2021/12/12 11:47:59;;;;;;;4.93;2.90;;;;;;;4.86;86.35;101283.94;5033577;28;20682;-74
2021/12/12 11:50:36;;;;;;;4.07;2.90;;;;;;;4.86;86.78;101276.91;5034043;28;20210;-74
2021/12/12 11:53:05;;;;;;;3.07;2.57;;;;;;;4.85;86.48;101285.72;5029661;28;20296;-71
2021/12/12 11:55:37;;;;;;;4.67;2.40;;;;;;;4.87;86.75;101278.63;5024187;28;20683;-73
2021/12/12 11:58:15;;;;;;;2.70;2.27;;;;;;;4.93;86.66;101274.09;5033300;28;20675;-73
2021/12/12 12:00:50;;;;;;;4.60;2.60;;;;;;;4.94;87.01;101281.09;5030811;28;20592;-72
2021/12/12 12:03:34;;;;;;;3.43;2.17;;;;;;;4.96;86.98;101281.91;5031798;28;20711;-73
2021/12/12 12:06:19;;;;;;;4.17;2.33;;;;;;;4.95;87.17;101275.78;5031114;28;20222;-74